Time;durP1;ratioP1;P1;durP2;ratioP2;P2;SDS_P1;SDS_P2;PMS_P1;PMS_P2;Temp;Humidity;BMP_temperature;BMP_pressure;BME280_temperature;BME280_humidity;BME280_pressure;Samples;Min_cycle;Max_cycle;Signal;HPM_P1;HPM_P2
2022/10/13 00:00:10;;;;;;;97.13;47.00;;;;;;;;;;6171381;28;20022;-75
2022/10/13 00:03:11;;;;;;;96.70;47.90;;;;;;;;;;6172832;28;20019;-75
2022/10/13 00:06:12;;;;;;;118.25;57.22;;;;;;;;;;6171994;28;20022;-76
2022/10/13 00:09:12;;;;;;;110.82;56.00;;;;;;;;;;6172174;28;20029;-76
2022/10/13 00:12:12;;;;;;;122.88;56.35;;;;;;;;;;6154670;28;20019;-76
2022/10/13 00:15:12;;;;;;;107.93;51.25;;;;;;;;;;6160352;28;20255;-76
2022/10/13 00:18:13;;;;;;;95.60;47.00;;;;;;;;;;6177534;28;20027;-76
2022/10/13 00:21:15;;;;;;;94.97;47.15;;;;;;;;;;6178063;28;20250;-76
2022/10/13 00:24:15;;;;;;;90.45;44.20;;;;;;;;;;6178111;28;20019;-76
2022/10/13 00:27:15;;;;;;;94.37;45.17;;;;;;;;;;6176210;28;20105;-76
2022/10/13 00:30:16;;;;;;;80.88;41.42;;;;;;;;;;6176640;28;20697;-76
2022/10/13 00:33:16;;;;;;;84.38;39.58;;;;;;;;;;6174581;28;20034;-76
2022/10/13 00:36:16;;;;;;;77.47;38.23;;;;;;;;;;6175913;28;20098;-76
2022/10/13 00:39:16;;;;;;;76.47;38.60;;;;;;;;;;6177093;28;20041;-77
2022/10/13 00:42:17;;;;;;;66.25;35.85;;;;;;;;;;6176250;28;20027;-76
2022/10/13 00:45:24;;;;;;;78.22;35.38;;;;;;;;;;6176509;28;20365;-76
2022/10/13 00:48:26;;;;;;;67.65;35.63;;;;;;;;;;6174850;28;20122;-76
2022/10/13 00:51:28;;;;;;;62.35;32.70;;;;;;;;;;6157268;28;20018;-76
2022/10/13 00:54:28;;;;;;;62.47;34.65;;;;;;;;;;6172749;28;20049;-76
2022/10/13 00:57:28;;;;;;;63.22;33.22;;;;;;;;;;6177152;28;20037;-76
2022/10/13 01:00:29;;;;;;;67.30;33.25;;;;;;;;;;6175343;28;20030;-76
2022/10/13 01:03:29;;;;;;;68.32;37.80;;;;;;;;;;6177470;28;20546;-76
2022/10/13 01:06:30;;;;;;;75.22;38.33;;;;;;;;;;6175161;28;20030;-76
2022/10/13 01:09:36;;;;;;;78.68;37.05;;;;;;;;;;6175075;28;20019;-77
2022/10/13 01:12:48;;;;;;;74.60;37.25;;;;;;;;;;6172700;28;20319;-77
2022/10/13 01:15:54;;;;;;;76.05;38.00;;;;;;;;;;6152423;28;20033;-77
2022/10/13 01:19:13;;;;;;;78.30;37.83;;;;;;;;;;6174998;28;20085;-77
2022/10/13 01:22:32;;;;;;;79.40;40.35;;;;;;;;;;6174020;28;20444;-76
2022/10/13 01:25:38;;;;;;;76.10;38.92;;;;;;;;;;6162581;28;20121;-77
2022/10/13 01:29:07;;;;;;;75.82;38.28;;;;;;;;;;6171488;28;20030;-77
2022/10/13 01:32:13;;;;;;;88.45;44.55;;;;;;;;;;6170703;28;20022;-77
2022/10/13 01:35:18;;;;;;;89.97;46.45;;;;;;;;;;6175718;28;20101;-78
2022/10/13 01:38:18;;;;;;;88.95;42.47;;;;;;;;;;6157120;28;20046;-78
2022/10/13 01:41:27;;;;;;;97.72;50.67;;;;;;;;;;6172733;28;20031;-78
2022/10/13 01:44:37;;;;;;;103.30;50.70;;;;;;;;;;6172376;28;20312;-77
2022/10/13 01:47:37;;;;;;;94.88;49.78;;;;;;;;;;6157369;28;20031;-77
2022/10/13 01:50:38;;;;;;;95.90;49.17;;;;;;;;;;6172206;28;20387;-77
2022/10/13 01:53:38;;;;;;;85.43;45.47;;;;;;;;;;6175598;28;20022;-77
2022/10/13 01:56:38;;;;;;;87.47;49.40;;;;;;;;;;6175357;28;20560;-77
2022/10/13 01:59:39;;;;;;;79.00;43.75;;;;;;;;;;6173361;28;20057;-78
2022/10/13 02:02:42;;;;;;;90.40;48.73;;;;;;;;;;6172754;28;20030;-78
2022/10/13 02:05:48;;;;;;;95.20;50.42;;;;;;;;;;6158325;28;20069;-78
2022/10/13 02:08:57;;;;;;;90.45;50.28;;;;;;;;;;6174304;28;20023;-78
2022/10/13 02:11:58;;;;;;;93.97;47.20;;;;;;;;;;6170238;28;20018;-78
2022/10/13 02:14:59;;;;;;;90.07;46.17;;;;;;;;;;6169639;28;20031;-78
2022/10/13 02:18:00;;;;;;;83.97;42.17;;;;;;;;;;6177544;28;20030;-78
2022/10/13 02:21:02;;;;;;;93.32;43.28;;;;;;;;;;6175837;28;20053;-78
2022/10/13 02:24:03;;;;;;;84.47;40.50;;;;;;;;;;6158641;28;20059;-78
2022/10/13 02:27:05;;;;;;;84.20;42.43;;;;;;;;;;6161339;28;20022;-79
2022/10/13 02:30:05;;;;;;;;;;;;;;;;;;6174375;28;20494;-79
2022/10/13 02:33:05;;;;;;;78.40;39.60;;;;;;;;;;6159113;28;19909;-79
2022/10/13 02:36:05;;;;;;;79.55;40.95;;;;;;;;;;6158042;28;20023;-79
2022/10/13 02:39:07;;;;;;;80.50;42.47;;;;;;;;;;6176693;28;20391;-78
2022/10/13 02:42:07;;;;;;;;;;;;;;;;;;6171766;28;20165;-79
2022/10/13 02:45:08;;;;;;;82.90;41.53;;;;;;;;;;6157875;28;19913;-79
2022/10/13 02:48:08;;;;;;;85.63;41.83;;;;;;;;;;6174612;28;20547;-80
2022/10/13 02:51:08;;;;;;;83.57;44.67;;;;;;;;;;6157916;28;20463;-80
2022/10/13 02:54:08;;;;;;;74.05;41.35;;;;;;;;;;6157793;28;20108;-80
2022/10/13 02:57:09;;;;;;;78.40;40.03;;;;;;;;;;6174809;28;20025;-80
2022/10/13 03:00:09;;;;;;;73.03;36.15;;;;;;;;;;6171742;28;20030;-80
2022/10/13 03:03:10;;;;;;;57.05;31.80;;;;;;;;;;6159354;28;20023;-80
2022/10/13 03:06:10;;;;;;;84.63;43.03;;;;;;;;;;6174907;28;20391;-80
2022/10/13 03:09:10;;;;;;;57.92;31.30;;;;;;;;;;6176169;28;20073;-80
2022/10/13 03:12:11;;;;;;;75.83;38.53;;;;;;;;;;6174388;28;20487;-80
2022/10/13 03:15:11;;;;;;;81.17;44.83;;;;;;;;;;6159783;28;20101;-80
2022/10/13 03:18:11;;;;;;;82.23;42.63;;;;;;;;;;6160272;28;20133;-81
2022/10/13 03:21:11;;;;;;;89.30;43.67;;;;;;;;;;6178226;28;20035;-81
2022/10/13 03:24:11;;;;;;;69.77;40.93;;;;;;;;;;6170846;28;20031;-82
2022/10/13 03:27:12;;;;;;;71.80;37.90;;;;;;;;;;6176289;28;20026;-82
2022/10/13 03:30:12;;;;;;;79.95;41.65;;;;;;;;;;6171481;28;20693;-81
2022/10/13 03:33:12;;;;;;;65.32;37.45;;;;;;;;;;6158202;28;20410;-82
2022/10/13 03:36:13;;;;;;;77.77;40.27;;;;;;;;;;6152218;28;20053;-82
2022/10/13 03:39:13;;;;;;;77.55;39.30;;;;;;;;;;6153275;28;20023;-82
2022/10/13 03:42:14;;;;;;;68.72;31.23;;;;;;;;;;6173104;28;20030;-82
2022/10/13 03:45:14;;;;;;;68.77;35.20;;;;;;;;;;6169206;28;20088;-82
2022/10/13 03:48:14;;;;;;;45.25;24.45;;;;;;;;;;6174436;28;20039;-82
2022/10/13 03:51:16;;;;;;;65.32;37.38;;;;;;;;;;6174964;28;20014;-82
2022/10/13 03:54:17;;;;;;;91.05;41.85;;;;;;;;;;6163346;28;20296;-82
2022/10/13 03:57:17;;;;;;;81.57;40.30;;;;;;;;;;6179710;28;20475;-82
2022/10/13 04:00:17;;;;;;;78.18;37.35;;;;;;;;;;6175871;28;20285;-82
2022/10/13 04:03:18;;;;;;;78.10;36.03;;;;;;;;;;6175142;28;20426;-82
2022/10/13 04:06:18;;;;;;;61.03;32.00;;;;;;;;;;6179866;28;20050;-83
2022/10/13 04:09:18;;;;;;;62.47;28.43;;;;;;;;;;6162037;28;20015;-83
2022/10/13 04:12:18;;;;;;;52.85;26.55;;;;;;;;;;6182189;28;20023;-82
2022/10/13 04:15:18;;;;;;;45.25;21.73;;;;;;;;;;6181719;28;20258;-82
2022/10/13 04:18:19;;;;;;;48.28;23.63;;;;;;;;;;6183680;28;20277;-83
2022/10/13 04:21:19;;;;;;;38.35;22.60;;;;;;;;;;6168416;28;20258;-83
2022/10/13 04:24:19;;;;;;;42.13;20.95;;;;;;;;;;6182975;28;20102;-83
2022/10/13 04:27:22;;;;;;;37.20;20.63;;;;;;;;;;6174063;28;20038;-83
2022/10/13 04:30:22;;;;;;;39.97;20.67;;;;;;;;;;6160445;28;20034;-83
2022/10/13 04:33:22;;;;;;;45.92;21.70;;;;;;;;;;6160564;28;20015;-83
2022/10/13 04:36:22;;;;;;;45.03;23.27;;;;;;;;;;6180168;28;20033;-83
2022/10/13 04:39:23;;;;;;;44.30;20.15;;;;;;;;;;6160851;28;20258;-83
2022/10/13 04:42:23;;;;;;;42.70;20.98;;;;;;;;;;6176834;28;20027;-83
2022/10/13 04:45:23;;;;;;;45.00;21.70;;;;;;;;;;6171434;28;20291;-82
2022/10/13 04:48:23;;;;;;;40.20;21.43;;;;;;;;;;6168219;28;20027;-83
2022/10/13 04:51:24;;;;;;;42.30;19.35;;;;;;;;;;6151544;28;20023;-82
2022/10/13 04:54:24;;;;;;;38.35;22.98;;;;;;;;;;6160177;28;20062;-82
2022/10/13 04:57:24;;;;;;;47.10;22.08;;;;;;;;;;6171151;28;20053;-83
2022/10/13 05:00:24;;;;;;;40.53;20.38;;;;;;;;;;6177021;28;20014;-85
2022/10/13 05:03:25;;;;;;;44.78;25.23;;;;;;;;;;6174620;28;20375;-84
2022/10/13 05:06:26;;;;;;;51.00;27.20;;;;;;;;;;6158635;28;20101;-83
2022/10/13 05:09:27;;;;;;;64.78;28.25;;;;;;;;;;6177793;28;20395;-84
2022/10/13 05:12:27;;;;;;;65.80;30.53;;;;;;;;;;6174949;28;20026;-83
2022/10/13 05:15:27;;;;;;;68.60;31.70;;;;;;;;;;6179202;28;20039;-83
2022/10/13 05:18:27;;;;;;;72.13;36.45;;;;;;;;;;6158740;28;20087;-83
2022/10/13 05:21:28;;;;;;;126.43;61.07;;;;;;;;;;6181096;28;20337;-83
2022/10/13 05:24:37;;;;;;;78.78;43.95;;;;;;;;;;6164911;28;20262;-83
2022/10/13 05:27:37;;;;;;;76.50;38.58;;;;;;;;;;6151385;28;20021;-82
2022/10/13 05:30:38;;;;;;;79.95;38.33;;;;;;;;;;6172112;28;20400;-83
2022/10/13 05:33:38;;;;;;;78.53;41.08;;;;;;;;;;6158115;28;20416;-82
2022/10/13 05:36:38;;;;;;;84.68;41.72;;;;;;;;;;6174028;28;20025;-82
2022/10/13 05:39:38;;;;;;;89.10;43.25;;;;;;;;;;6159300;28;20015;-82
2022/10/13 05:42:39;;;;;;;74.63;42.08;;;;;;;;;;6174398;28;20066;-81
2022/10/13 05:45:39;;;;;;;76.03;44.03;;;;;;;;;;6155260;28;20042;-80
2022/10/13 05:48:39;;;;;;;68.82;44.10;;;;;;;;;;6172043;28;20423;-80
2022/10/13 05:51:45;;;;;;;67.10;40.75;;;;;;;;;;6175788;28;20479;-80
2022/10/13 05:54:47;;;;;;;66.68;41.78;;;;;;;;;;6172096;28;20074;-80
2022/10/13 05:57:49;;;;;;;54.67;31.73;;;;;;;;;;6155056;28;20068;-79
2022/10/13 06:00:50;;;;;;;38.42;25.40;;;;;;;;;;6170338;28;20011;-78
2022/10/13 06:03:52;;;;;;;47.33;29.07;;;;;;;;;;6169425;28;20393;-77
2022/10/13 06:06:52;;;;;;;46.05;28.08;;;;;;;;;;6174395;28;20038;-78
2022/10/13 06:09:52;;;;;;;51.80;31.57;;;;;;;;;;6173416;28;20069;-78
2022/10/13 06:12:53;;;;;;;54.13;32.63;;;;;;;;;;6151544;28;20022;-78
2022/10/13 06:15:53;;;;;;;53.33;32.07;;;;;;;;;;6172429;28;20065;-77
2022/10/13 06:18:53;;;;;;;49.85;30.80;;;;;;;;;;6171254;28;20021;-77
2022/10/13 06:21:53;;;;;;;59.77;32.53;;;;;;;;;;6170650;28;20010;-76
2022/10/13 06:24:53;;;;;;;51.20;31.63;;;;;;;;;;6169886;28;20101;-77
2022/10/13 06:27:58;;;;;;;40.83;29.13;;;;;;;;;;6171043;28;20026;-77
2022/10/13 06:30:59;;;;;;;37.53;25.23;;;;;;;;;;6169871;28;20033;-77
2022/10/13 06:33:59;;;;;;;51.37;30.03;;;;;;;;;;6166199;28;20019;-77
2022/10/13 06:36:59;;;;;;;80.37;51.57;;;;;;;;;;6166735;28;20387;-76
2022/10/13 06:39:59;;;;;;;67.70;47.47;;;;;;;;;;6171291;28;20029;-76
2022/10/13 06:42:59;;;;;;;48.77;32.07;;;;;;;;;;6163872;28;20309;-76
2022/10/13 06:46:00;;;;;;;50.97;34.27;;;;;;;;;;6167626;28;20170;-75
2022/10/13 06:49:00;;;;;;;65.03;41.63;;;;;;;;;;6165874;28;20495;-75
2022/10/13 06:52:00;;;;;;;48.97;28.00;;;;;;;;;;6168638;28;20515;-75
2022/10/13 06:55:00;;;;;;;45.30;28.55;;;;;;;;;;6172617;28;20050;-74
2022/10/13 06:58:00;;;;;;;65.88;44.70;;;;;;;;;;6173091;28;20023;-75
2022/10/13 07:01:01;;;;;;;48.77;31.63;;;;;;;;;;6171920;28;20490;-75
2022/10/13 07:04:01;;;;;;;50.90;30.83;;;;;;;;;;6172622;28;20041;-75
2022/10/13 07:07:01;;;;;;;55.43;34.30;;;;;;;;;;6167483;28;20022;-74
2022/10/13 07:10:02;;;;;;;38.83;23.53;;;;;;;;;;6171608;28;20014;-74
2022/10/13 07:13:02;;;;;;;38.27;19.87;;;;;;;;;;6172726;28;20014;-74
2022/10/13 07:16:03;;;;;;;36.83;20.10;;;;;;;;;;6165692;28;20077;-73
2022/10/13 07:19:03;;;;;;;39.07;21.30;;;;;;;;;;6168939;28;20015;-74
2022/10/13 07:22:03;;;;;;;32.80;19.40;;;;;;;;;;6164675;28;20015;-73
2022/10/13 07:25:04;;;;;;;33.30;20.67;;;;;;;;;;6171357;28;20053;-73
2022/10/13 07:28:04;;;;;;;28.33;17.53;;;;;;;;;;6149213;28;20026;-73
2022/10/13 07:31:10;;;;;;;33.73;19.93;;;;;;;;;;6169687;28;20049;-73
2022/10/13 07:34:10;;;;;;;36.85;18.73;;;;;;;;;;6163836;28;20098;-74
2022/10/13 07:37:11;;;;;;;31.07;18.20;;;;;;;;;;6168986;28;20023;-73
2022/10/13 07:40:11;;;;;;;32.90;18.03;;;;;;;;;;6170929;28;20117;-74
2022/10/13 07:43:11;;;;;;;25.90;14.40;;;;;;;;;;6153476;28;20029;-73
2022/10/13 07:46:12;;;;;;;23.80;14.43;;;;;;;;;;6166849;28;20462;-73
2022/10/13 07:49:12;;;;;;;22.87;14.43;;;;;;;;;;6166647;28;20634;-73
2022/10/13 07:52:12;;;;;;;24.87;11.63;;;;;;;;;;6162239;28;20019;-73
2022/10/13 07:55:13;;;;;;;20.25;12.02;;;;;;;;;;6171449;28;20356;-73
2022/10/13 07:58:13;;;;;;;23.53;10.53;;;;;;;;;;6169738;28;20053;-73
2022/10/13 08:01:16;;;;;;;21.63;13.65;;;;;;;;;;6170697;28;20034;-73
2022/10/13 08:04:16;;;;;;;26.23;14.43;;;;;;;;;;6175749;28;20026;-73
2022/10/13 08:07:17;;;;;;;73.93;40.23;;;;;;;;;;6170759;28;20427;-73
2022/10/13 08:10:17;;;;;;;21.17;13.13;;;;;;;;;;6167955;28;20038;-73
2022/10/13 08:13:17;;;;;;;20.37;10.17;;;;;;;;;;6170597;28;20109;-73
2022/10/13 08:16:18;;;;;;;23.05;11.18;;;;;;;;;;6171328;28;20023;-73
2022/10/13 08:19:20;;;;;;;18.63;10.90;;;;;;;;;;6171227;28;20086;-74
2022/10/13 08:22:21;;;;;;;22.63;11.68;;;;;;;;;;6170005;28;20754;-74
2022/10/13 08:25:21;;;;;;;33.60;18.07;;;;;;;;;;6169843;28;20078;-74
2022/10/13 08:28:25;;;;;;;44.10;22.43;;;;;;;;;;6166688;28;20031;-74
2022/10/13 08:31:25;;;;;;;19.42;10.20;;;;;;;;;;6167193;28;20066;-74
2022/10/13 08:34:25;;;;;;;17.77;8.95;;;;;;;;;;6171437;28;20026;-74
2022/10/13 08:37:26;;;;;;;20.43;12.27;;;;;;;;;;6174977;28;20034;-74
2022/10/13 08:40:26;;;;;;;21.38;10.93;;;;;;;;;;6172621;28;20382;-74
2022/10/13 08:43:26;;;;;;;19.37;10.13;;;;;;;;;;6174656;28;20057;-74
2022/10/13 08:46:28;;;;;;;18.33;11.97;;;;;;;;;;6172294;28;20050;-74
2022/10/13 08:49:29;;;;;;;16.48;9.95;;;;;;;;;;6175038;28;20026;-76
2022/10/13 08:52:42;;;;;;;17.15;9.00;;;;;;;;;;6165512;28;20015;-74
2022/10/13 08:55:43;;;;;;;18.77;10.80;;;;;;;;;;6173042;28;20031;-74
2022/10/13 08:58:44;;;;;;;16.13;9.40;;;;;;;;;;6173287;28;20031;-74
2022/10/13 09:01:50;;;;;;;19.70;10.13;;;;;;;;;;6171614;28;20463;-74
2022/10/13 09:04:52;;;;;;;19.63;10.27;;;;;;;;;;6168889;28;20038;-75
2022/10/13 09:07:53;;;;;;;18.02;10.05;;;;;;;;;;6168788;28;20131;-74
2022/10/13 09:10:53;;;;;;;20.92;10.43;;;;;;;;;;6168853;28;20050;-75
2022/10/13 09:13:55;;;;;;;17.30;10.07;;;;;;;;;;6170731;28;20037;-74
2022/10/13 09:16:57;;;;;;;15.05;8.13;;;;;;;;;;6169541;28;20027;-74
2022/10/13 09:19:57;;;;;;;;;;;;;;;;;;6171639;28;20038;-74
2022/10/13 09:23:02;;;;;;;17.88;7.85;;;;;;;;;;6171740;28;19941;-74
2022/10/13 09:26:06;;;;;;;15.98;7.93;;;;;;;;;;6151923;28;20435;-74
2022/10/13 09:29:14;;;;;;;16.45;8.90;;;;;;;;;;6171191;28;20019;-74
2022/10/13 09:32:24;;;;;;;18.80;8.68;;;;;;;;;;6167917;28;20076;-74
2022/10/13 09:35:24;;;;;;;13.88;7.45;;;;;;;;;;6173478;28;20042;-74
2022/10/13 09:38:25;;;;;;;17.47;8.40;;;;;;;;;;6155638;28;20486;-74
2022/10/13 09:41:25;;;;;;;14.93;7.68;;;;;;;;;;6171356;28;20038;-74
2022/10/13 09:44:28;;;;;;;14.15;7.60;;;;;;;;;;6162452;28;20049;-74
2022/10/13 09:47:29;;;;;;;14.50;8.48;;;;;;;;;;6165704;28;20045;-74
2022/10/13 09:50:30;;;;;;;18.42;7.60;;;;;;;;;;6164536;28;20474;-74
2022/10/13 09:53:36;;;;;;;13.75;8.35;;;;;;;;;;6171194;28;20057;-74
2022/10/13 09:56:40;;;;;;;14.02;6.45;;;;;;;;;;6173705;28;20027;-74
2022/10/13 09:59:44;;;;;;;15.68;7.75;;;;;;;;;;6173394;28;20110;-74
2022/10/13 10:03:03;;;;;;;12.45;6.13;;;;;;;;;;6173915;28;20482;-76
2022/10/13 10:06:10;;;;;;;13.98;8.40;;;;;;;;;;6173039;28;20049;-75
2022/10/13 10:09:26;;;;;;;11.27;6.38;;;;;;;;;;6174260;28;20098;-74
2022/10/13 10:12:29;;;;;;;14.23;6.93;;;;;;;;;;6172682;28;20011;-74
2022/10/13 10:15:37;;;;;;;17.00;7.82;;;;;;;;;;6172762;28;20455;-74
2022/10/13 10:18:45;;;;;;;15.00;6.30;;;;;;;;;;6172766;28;20479;-74
2022/10/13 10:21:49;;;;;;;15.57;7.03;;;;;;;;;;6171755;28;20128;-74
2022/10/13 10:24:49;;;;;;;13.73;6.65;;;;;;;;;;6172994;28;20031;-74
2022/10/13 10:28:02;;;;;;;14.50;6.77;;;;;;;;;;6173330;28;20030;-75
2022/10/13 10:31:12;;;;;;;11.75;6.30;;;;;;;;;;6175534;28;20022;-74
2022/10/13 10:34:31;;;;;;;12.98;7.05;;;;;;;;;;6172649;28;20051;-74
2022/10/13 10:37:34;;;;;;;16.13;7.18;;;;;;;;;;6172075;28;20308;-74
2022/10/13 10:40:38;;;;;;;13.38;6.07;;;;;;;;;;6171331;28;20641;-75
2022/10/13 10:43:38;;;;;;;12.95;6.03;;;;;;;;;;6161580;28;20855;-74
2022/10/13 10:46:46;;;;;;;16.73;6.35;;;;;;;;;;6138562;28;20051;-74
2022/10/13 10:49:47;;;;;;;14.10;6.78;;;;;;;;;;6142989;28;20027;-74
2022/10/13 10:52:59;;;;;;;13.33;6.47;;;;;;;;;;6146942;29;20050;-74
2022/10/13 10:56:17;;;;;;;13.93;7.35;;;;;;;;;;6147609;29;20110;-74
2022/10/13 10:59:21;;;;;;;12.85;5.10;;;;;;;;;;6146182;28;20024;-74
2022/10/13 11:02:33;;;;;;;14.85;5.30;;;;;;;;;;6147339;28;20162;-74
2022/10/13 11:05:52;;;;;;;10.23;5.45;;;;;;;;;;6146109;29;20011;-74
2022/10/13 11:08:54;;;;;;;10.57;5.60;;;;;;;;;;6148699;29;20031;-74
2022/10/13 11:11:54;;;;;;;11.43;5.22;;;;;;;;;;6142680;29;20082;-74
2022/10/13 11:15:11;;;;;;;12.67;5.40;;;;;;;;;;6147706;29;20020;-74
2022/10/13 11:18:30;;;;;;;15.88;6.60;;;;;;;;;;6146517;28;20031;-74
2022/10/13 11:21:49;;;;;;;11.73;7.03;;;;;;;;;;6145873;28;20033;-75
2022/10/13 11:24:53;;;;;;;12.90;6.63;;;;;;;;;;6146462;29;20043;-74
2022/10/13 11:27:54;;;;;;;14.85;5.85;;;;;;;;;;6145356;29;20023;-74
2022/10/13 11:30:55;;;;;;;10.60;5.53;;;;;;;;;;6146949;28;20038;-75
2022/10/13 11:33:55;;;;;;;;;;;;;;;;;;6146568;29;20034;-75
2022/10/13 11:36:59;;;;;;;15.00;7.37;;;;;;;;;;6159839;28;19906;-74
2022/10/13 11:40:20;;;;;;;11.20;4.90;;;;;;;;;;6146049;29;20078;-74
2022/10/13 11:43:39;;;;;;;11.23;5.18;;;;;;;;;;6133500;28;20039;-74
2022/10/13 11:46:54;;;;;;;11.35;5.50;;;;;;;;;;6167113;28;20502;-75
2022/10/13 11:50:06;;;;;;;12.98;5.68;;;;;;;;;;6170408;28;20038;-74
2022/10/13 11:53:10;;;;;;;14.73;5.88;;;;;;;;;;6166636;28;20018;-74
2022/10/13 11:56:31;;;;;;;11.00;5.65;;;;;;;;;;6169312;28;20514;-74
2022/10/13 11:59:38;;;;;;;10.32;5.78;;;;;;;;;;6164870;28;20390;-74
2022/10/13 12:02:46;;;;;;;11.48;4.70;;;;;;;;;;6171581;28;20089;-74
2022/10/13 12:05:47;;;;;;;23.52;9.55;;;;;;;;;;6170091;28;20742;-75
2022/10/13 12:08:48;;;;;;;14.93;7.53;;;;;;;;;;6169791;28;20027;-73
2022/10/13 12:11:59;;;;;;;27.73;14.73;;;;;;;;;;6171882;28;20122;-72
2022/10/13 12:15:00;;;;;;;14.98;6.00;;;;;;;;;;6174350;28;20449;-72
2022/10/13 12:18:00;;;;;;;11.63;5.50;;;;;;;;;;6154104;28;20035;-72
2022/10/13 12:21:03;;;;;;;16.90;6.33;;;;;;;;;;6172078;28;20031;-72
2022/10/13 12:24:05;;;;;;;9.88;5.82;;;;;;;;;;6172145;28;20037;-72
2022/10/13 12:27:10;;;;;;;11.95;5.22;;;;;;;;;;6167755;28;20113;-73
2022/10/13 12:30:29;;;;;;;9.70;5.18;;;;;;;;;;6148814;28;20018;-73
2022/10/13 12:33:31;;;;;;;11.38;5.93;;;;;;;;;;6160180;28;20455;-73
2022/10/13 12:36:32;;;;;;;16.58;5.85;;;;;;;;;;6150030;28;20050;-73
2022/10/13 12:39:33;;;;;;;8.10;3.78;;;;;;;;;;6168494;28;20077;-74
2022/10/13 12:42:34;;;;;;;13.70;5.13;;;;;;;;;;6161660;28;20130;-75
2022/10/13 12:45:35;;;;;;;7.57;3.63;;;;;;;;;;6167932;28;20272;-73
2022/10/13 12:48:35;;;;;;;10.90;3.80;;;;;;;;;;6145157;28;20034;-73
2022/10/13 12:51:36;;;;;;;14.47;4.67;;;;;;;;;;6170837;28;20022;-73
2022/10/13 12:54:37;;;;;;;7.97;3.97;;;;;;;;;;6159889;28;20270;-73
2022/10/13 12:57:39;;;;;;;;;;;;;;;;;;6165553;28;20085;-73
2022/10/13 13:00:39;;;;;;;12.40;4.10;;;;;;;;;;6169083;28;19911;-75
2022/10/13 13:03:40;;;;;;;14.13;4.63;;;;;;;;;;6167976;28;20090;-73
2022/10/13 13:06:50;;;;;;;10.32;4.63;;;;;;;;;;6164399;28;20506;-74
2022/10/13 13:10:06;;;;;;;9.55;4.50;;;;;;;;;;6143327;28;20038;-74
2022/10/13 13:13:13;;;;;;;10.68;4.15;;;;;;;;;;6168679;28;20525;-74
2022/10/13 13:16:22;;;;;;;9.68;3.70;;;;;;;;;;6169983;28;20026;-74
2022/10/13 13:19:22;;;;;;;15.98;4.30;;;;;;;;;;6170740;28;20018;-74
2022/10/13 13:22:22;;;;;;;13.67;4.17;;;;;;;;;;6173523;28;20475;-74
2022/10/13 13:25:23;;;;;;;8.87;3.63;;;;;;;;;;6165596;28;20117;-74
2022/10/13 13:28:27;;;;;;;10.00;4.80;;;;;;;;;;6169946;28;20041;-74
2022/10/13 13:31:27;;;;;;;16.55;5.68;;;;;;;;;;6167950;28;20023;-74
2022/10/13 13:34:28;;;;;;;11.87;4.30;;;;;;;;;;6162994;28;20161;-74
2022/10/13 13:37:49;;;;;;;13.98;4.55;;;;;;;;;;6173386;28;20018;-73
2022/10/13 13:40:49;;;;;;;12.65;5.63;;;;;;;;;;6169693;28;20483;-74
2022/10/13 13:43:49;;;;;;;9.23;4.28;;;;;;;;;;6155542;28;20034;-74
2022/10/13 13:46:49;;;;;;;9.87;4.67;;;;;;;;;;6174252;28;20089;-74
2022/10/13 13:49:50;;;;;;;15.55;8.57;;;;;;;;;;6173738;28;20034;-74
2022/10/13 13:52:51;;;;;;;18.25;9.35;;;;;;;;;;6173017;28;20439;-74
2022/10/13 13:55:51;;;;;;;14.53;6.20;;;;;;;;;;6174404;28;20089;-74
2022/10/13 13:58:51;;;;;;;23.05;9.50;;;;;;;;;;6155471;28;20522;-74
2022/10/13 14:01:51;;;;;;;19.60;9.97;;;;;;;;;;6156313;28;20109;-74
2022/10/13 14:04:52;;;;;;;13.15;6.55;;;;;;;;;;6169777;28;20089;-75
2022/10/13 14:07:56;;;;;;;16.57;7.20;;;;;;;;;;6161605;28;20054;-74
2022/10/13 14:10:57;;;;;;;15.10;8.50;;;;;;;;;;6172535;28;20034;-74
2022/10/13 14:14:00;;;;;;;12.77;6.60;;;;;;;;;;6172013;28;20419;-74
2022/10/13 14:17:02;;;;;;;12.05;6.88;;;;;;;;;;6173461;28;20554;-74
2022/10/13 14:20:03;;;;;;;18.58;8.57;;;;;;;;;;6170887;28;20045;-74
2022/10/13 14:23:03;;;;;;;10.13;6.10;;;;;;;;;;6171880;28;20027;-75
2022/10/13 14:26:04;;;;;;;12.50;7.97;;;;;;;;;;6151020;28;20070;-75
2022/10/13 14:29:04;;;;;;;15.23;8.60;;;;;;;;;;6175019;28;20029;-73
2022/10/13 14:32:04;;;;;;;18.83;9.87;;;;;;;;;;6164858;28;20069;-74
2022/10/13 14:35:05;;;;;;;18.80;11.50;;;;;;;;;;6175465;28;20032;-74
2022/10/13 14:38:05;;;;;;;22.33;13.20;;;;;;;;;;6167977;28;20134;-73
2022/10/13 14:41:06;;;;;;;34.70;16.67;;;;;;;;;;6170681;28;20025;-73
2022/10/13 14:44:06;;;;;;;41.17;20.70;;;;;;;;;;6167388;28;20067;-74
2022/10/13 14:47:06;;;;;;;36.83;19.57;;;;;;;;;;6171031;28;20033;-74
2022/10/13 14:50:07;;;;;;;36.25;20.40;;;;;;;;;;6167499;28;20034;-74
2022/10/13 14:53:14;;;;;;;63.97;36.10;;;;;;;;;;6165552;28;20525;-74
2022/10/13 14:56:14;;;;;;;61.85;32.72;;;;;;;;;;6167556;28;20077;-73
2022/10/13 14:59:14;;;;;;;44.95;27.20;;;;;;;;;;6162261;28;20731;-73
2022/10/13 15:02:14;;;;;;;36.57;23.00;;;;;;;;;;6163658;28;20022;-73
2022/10/13 15:05:14;;;;;;;36.97;21.17;;;;;;;;;;6171017;28;20142;-73
2022/10/13 15:08:15;;;;;;;30.33;18.40;;;;;;;;;;6169944;28;20023;-73
2022/10/13 15:11:15;;;;;;;32.73;17.20;;;;;;;;;;6149764;28;20023;-73
2022/10/13 15:14:15;;;;;;;29.93;19.27;;;;;;;;;;6164070;28;20029;-73
2022/10/13 15:17:16;;;;;;;39.40;20.37;;;;;;;;;;6165531;28;20126;-73
2022/10/13 15:20:16;;;;;;;34.28;19.77;;;;;;;;;;6157748;28;20487;-74
2022/10/13 15:23:16;;;;;;;34.63;20.70;;;;;;;;;;6158254;28;20031;-74
2022/10/13 15:26:17;;;;;;;27.90;18.88;;;;;;;;;;6162428;28;20030;-75
2022/10/13 15:29:18;;;;;;;35.00;20.45;;;;;;;;;;6162879;28;20017;-73
2022/10/13 15:32:18;;;;;;;46.10;26.42;;;;;;;;;;6162438;28;20019;-74
2022/10/13 15:35:18;;;;;;;59.67;33.73;;;;;;;;;;6165439;28;20078;-74
2022/10/13 15:38:19;;;;;;;55.78;30.85;;;;;;;;;;6155741;28;20038;-74
2022/10/13 15:41:21;;;;;;;62.63;33.23;;;;;;;;;;6158972;28;20027;-74
2022/10/13 15:44:24;;;;;;;64.82;32.10;;;;;;;;;;6150400;28;20045;-74
2022/10/13 15:47:24;;;;;;;54.55;31.05;;;;;;;;;;6163559;28;20027;-74
2022/10/13 15:50:24;;;;;;;65.18;33.75;;;;;;;;;;6160665;28;20026;-74
2022/10/13 15:53:24;;;;;;;79.70;35.90;;;;;;;;;;6161933;28;20023;-75
2022/10/13 15:56:24;;;;;;;69.70;35.00;;;;;;;;;;6163438;28;20029;-74
2022/10/13 15:59:25;;;;;;;68.97;35.50;;;;;;;;;;6167744;28;20030;-73
2022/10/13 16:02:25;;;;;;;59.88;31.25;;;;;;;;;;6171000;28;20018;-74
2022/10/13 16:05:25;;;;;;;52.80;27.23;;;;;;;;;;6170144;28;20502;-74
2022/10/13 16:08:25;;;;;;;41.03;21.47;;;;;;;;;;6169612;28;20011;-74
2022/10/13 16:11:26;;;;;;;55.25;27.08;;;;;;;;;;6166419;28;20022;-74
2022/10/13 16:14:26;;;;;;;46.20;25.93;;;;;;;;;;6170815;28;20026;-74
2022/10/13 16:17:26;;;;;;;50.00;27.58;;;;;;;;;;6170164;28;20023;-74
2022/10/13 16:20:32;;;;;;;31.13;18.33;;;;;;;;;;6152174;28;20027;-74
2022/10/13 16:23:33;;;;;;;31.63;17.77;;;;;;;;;;6163084;28;20022;-74
2022/10/13 16:26:33;;;;;;;32.40;18.10;;;;;;;;;;6169644;28;20110;-74
2022/10/13 16:29:33;;;;;;;31.57;17.33;;;;;;;;;;6163618;28;20031;-74
2022/10/13 16:32:38;;;;;;;35.90;19.52;;;;;;;;;;6169196;28;20086;-74
2022/10/13 16:35:38;;;;;;;34.55;19.60;;;;;;;;;;6168188;28;20434;-74
2022/10/13 16:38:38;;;;;;;28.43;18.27;;;;;;;;;;6164985;28;20090;-74
2022/10/13 16:41:38;;;;;;;37.27;17.70;;;;;;;;;;6164890;28;20031;-74
2022/10/13 16:44:39;;;;;;;28.70;15.83;;;;;;;;;;6166747;28;20043;-74
2022/10/13 16:47:39;;;;;;;28.77;16.00;;;;;;;;;;6168903;28;20192;-74
2022/10/13 16:50:39;;;;;;;29.13;15.30;;;;;;;;;;6169413;28;20073;-74
2022/10/13 16:53:40;;;;;;;24.87;16.57;;;;;;;;;;6165324;28;20023;-75
2022/10/13 16:56:40;;;;;;;30.10;17.53;;;;;;;;;;6157993;28;20429;-75
2022/10/13 16:59:40;;;;;;;27.37;16.00;;;;;;;;;;6176741;28;20019;-75
2022/10/13 17:02:40;;;;;;;37.20;17.48;;;;;;;;;;6175504;28;20028;-76
2022/10/13 17:05:41;;;;;;;33.43;18.67;;;;;;;;;;6176607;28;20037;-75
2022/10/13 17:08:41;;;;;;;31.02;19.92;;;;;;;;;;6175557;28;20015;-75
2022/10/13 17:11:42;;;;;;;30.70;19.50;;;;;;;;;;6171122;28;20251;-75
2022/10/13 17:14:42;;;;;;;37.10;20.60;;;;;;;;;;6162269;28;20054;-75
2022/10/13 17:17:43;;;;;;;35.37;19.57;;;;;;;;;;6148792;28;20053;-75
2022/10/13 17:20:56;;;;;;;30.75;20.55;;;;;;;;;;6162351;28;20034;-75
2022/10/13 17:23:57;;;;;;;31.00;20.52;;;;;;;;;;6158960;28;20023;-75
2022/10/13 17:26:57;;;;;;;31.33;20.38;;;;;;;;;;6150607;28;20023;-75
2022/10/13 17:29:57;;;;;;;39.53;22.65;;;;;;;;;;6163989;28;20046;-75
2022/10/13 17:32:57;;;;;;;41.10;24.80;;;;;;;;;;6158062;28;20490;-75
2022/10/13 17:35:59;;;;;;;35.10;22.00;;;;;;;;;;6166669;28;20027;-75
2022/10/13 17:39:06;;;;;;;36.45;21.63;;;;;;;;;;6172775;28;20262;-75
2022/10/13 17:42:08;;;;;;;33.47;20.75;;;;;;;;;;6167121;28;20084;-75
2022/10/13 17:45:08;;;;;;;39.63;21.08;;;;;;;;;;6161907;28;20046;-76
2022/10/13 17:48:08;;;;;;;37.20;19.88;;;;;;;;;;6166559;28;20697;-75